Time;durP1;ratioP1;P1;durP2;ratioP2;P2;SDS_P1;SDS_P2;PMS_P1;PMS_P2;Temp;Humidity;BMP_temperature;BMP_pressure;BME280_temperature;BME280_humidity;BME280_pressure;Samples;Min_cycle;Max_cycle;Signal;HPM_P1;HPM_P2
2023/05/15 00:01:22;;;;;;;7.67;3.83;;;;;;;13.67;96.83;99873.40;1492489;86;20280;-84
2023/05/15 00:03:48;;;;;;;5.80;3.43;;;;;;;13.68;96.65;99877.20;1502639;86;21418;-84
2023/05/15 00:06:15;;;;;;;7.70;4.17;;;;;;;13.70;96.47;99865.06;1500354;86;21676;-84
2023/05/15 00:08:41;;;;;;;6.20;3.27;;;;;;;13.69;96.45;99866.05;1499375;86;21521;-84
2023/05/15 00:11:07;;;;;;;4.30;3.50;;;;;;;13.70;96.27;99854.42;1502027;86;21477;-84
2023/05/15 00:13:33;;;;;;;5.57;3.37;;;;;;;13.70;96.25;99843.78;1500696;86;21573;-84
2023/05/15 00:16:11;;;;;;;7.90;3.33;;;;;;;13.71;96.05;99852.08;1502722;86;21551;-84
2023/05/15 00:22:37;;;;;;;4.15;3.37;;;;;;;13.73;95.60;99849.56;1502843;86;21513;-83
2023/05/15 00:25:05;;;;;;;3.67;3.10;;;;;;;13.72;94.99;99843.08;1503692;86;21403;-84
2023/05/15 00:27:31;;;;;;;4.53;3.50;;;;;;;13.74;94.74;99838.41;1500179;85;21581;-84
2023/05/15 00:29:57;;;;;;;4.93;3.17;;;;;;;13.74;94.43;99841.89;1503676;86;22372;-84
2023/05/15 00:32:23;;;;;;;7.10;3.30;;;;;;;13.73;93.91;99834.11;1502581;86;21521;-83
2023/05/15 00:34:49;;;;;;;5.17;3.43;;;;;;;13.71;93.59;99837.45;1504995;86;21454;-83
2023/05/15 00:37:15;;;;;;;7.10;3.37;;;;;;;13.70;93.45;99832.64;1513624;86;22342;-84
2023/05/15 00:39:41;;;;;;;4.37;3.03;;;;;;;13.72;93.43;99828.45;1499729;86;21499;-84
2023/05/15 00:42:10;;;;;;;8.80;3.10;;;;;;;13.74;93.38;99826.45;1496133;86;21588;-85
2023/05/15 00:44:39;;;;;;;7.37;4.37;;;;;;;13.76;93.05;99828.42;1506360;86;21653;-85
2023/05/15 00:47:07;;;;;;;5.20;3.30;;;;;;;13.78;92.74;99826.39;1506164;86;21536;-85
2023/05/15 00:49:34;;;;;;;5.70;3.60;;;;;;;13.82;92.54;99823.70;1505227;86;22240;-85
2023/05/15 00:52:02;;;;;;;7.77;4.00;;;;;;;13.82;91.86;99822.38;1505165;86;21463;-85
2023/05/15 00:54:49;;;;;;;7.13;3.70;;;;;;;13.82;91.40;99817.05;1448641;90;21811;-84
2023/05/15 00:57:18;;;;;;;6.27;3.57;;;;;;;13.79;90.82;99812.10;1442343;90;22544;-86
2023/05/15 00:59:45;;;;;;;5.80;2.87;;;;;;;13.80;90.83;99819.57;1427974;90;21476;-85
2023/05/15 01:02:14;;;;;;;5.20;3.97;;;;;;;13.80;90.24;99815.07;1439679;90;22427;-84
2023/05/15 01:04:41;;;;;;;5.57;2.90;;;;;;;13.81;89.80;99816.74;1441519;90;22142;-83
2023/05/15 01:07:07;;;;;;;10.60;3.70;;;;;;;13.81;89.63;99816.74;1450223;90;21442;-84
2023/05/15 01:09:35;;;;;;;3.77;2.43;;;;;;;13.85;89.83;99815.35;1439756;90;22523;-84
2023/05/15 01:12:03;;;;;;;10.50;3.40;;;;;;;13.84;89.49;99820.36;1434984;90;21532;-84
2023/05/15 01:14:29;;;;;;;5.73;2.97;;;;;;;13.85;89.24;99819.34;1443263;90;22287;-85
2023/05/15 01:16:56;;;;;;;6.13;3.27;;;;;;;13.85;88.91;99815.35;1443283;90;21569;-85
2023/05/15 01:19:22;;;;;;;6.63;3.90;;;;;;;13.86;88.57;99818.32;1425123;88;21407;-85
2023/05/15 01:22:27;;;;;;;6.90;3.63;;;;;;;13.85;88.42;99816.68;1459766;88;22402;-84
2023/05/15 01:25:19;;;;;;;6.13;3.67;;;;;;;13.83;88.10;99813.38;1424007;90;21470;-86
2023/05/15 01:28:00;;;;;;;6.00;3.57;;;;;;;13.85;88.50;99822.00;1441027;90;22411;-85
2023/05/15 01:30:32;;;;;;;;;;;;;;;13.85;88.48;99817.19;1443757;90;21685;-85
2023/05/15 01:33:18;;;;;;;9.13;4.93;;;;;;;13.85;88.45;99829.98;1449873;89;20316;-85
2023/05/15 01:36:05;;;;;;;7.20;3.67;;;;;;;13.86;88.33;99820.98;1420258;90;21459;-86
2023/05/15 01:38:45;;;;;;;7.13;3.33;;;;;;;13.83;88.82;99825.34;1433538;90;21457;-85
2023/05/15 01:41:32;;;;;;;13.58;4.22;;;;;;;13.68;91.82;99816.54;1445696;90;21611;-86
2023/05/15 01:44:12;;;;;;;4.87;3.70;;;;;;;13.50;93.60;99819.05;1437290;90;21402;-85
2023/05/15 01:46:44;;;;;;;6.53;3.95;;;;;;;13.42;93.47;99823.62;1434244;90;21400;-85
2023/05/15 01:49:14;;;;;;;4.20;3.17;;;;;;;13.31;95.38;99818.22;1437216;89;21570;-86
2023/05/15 01:51:43;;;;;;;5.00;3.50;;;;;;;13.23;95.20;99813.77;1446400;90;21508;-86
2023/05/15 01:54:11;;;;;;;6.47;3.67;;;;;;;13.16;97.32;99811.52;1450365;88;21501;-86
2023/05/15 01:56:39;;;;;;;10.80;4.60;;;;;;;13.12;98.29;99810.72;1451204;90;21519;-85
2023/05/15 01:59:07;;;;;;;6.73;3.60;;;;;;;13.08;98.18;99805.77;1419122;90;21466;-85
2023/05/15 02:01:35;;;;;;;4.60;3.37;;;;;;;13.05;98.27;99804.80;1434305;90;21598;-86
2023/05/15 02:04:03;;;;;;;11.33;3.97;;;;;;;13.05;99.57;99810.62;1436600;90;21481;-85
2023/05/15 02:06:29;;;;;;;4.37;3.47;;;;;;;13.04;100.00;99812.96;1429726;91;22279;-85
2023/05/15 02:08:57;;;;;;;10.73;4.63;;;;;;;13.02;99.92;99810.47;1440065;90;21466;-85
2023/05/15 02:11:23;;;;;;;6.40;4.27;;;;;;;13.03;99.79;99813.94;1428156;90;21488;-85
2023/05/15 02:13:50;;;;;;;5.10;3.63;;;;;;;13.04;100.00;99817.77;1425121;90;21537;-86
2023/05/15 02:16:17;;;;;;;6.73;3.30;;;;;;;13.03;100.00;99821.44;1436149;91;21487;-86
2023/05/15 02:18:43;;;;;;;13.17;3.50;;;;;;;13.00;100.00;99812.47;1437707;90;21474;-86
2023/05/15 02:21:10;;;;;;;8.80;4.83;;;;;;;12.99;100.00;99814.81;1439695;91;21436;-87
2023/05/15 02:23:39;;;;;;;7.20;4.20;;;;;;;13.00;100.00;99813.80;1441190;91;22361;-86
2023/05/15 02:26:23;;;;;;;8.73;3.70;;;;;;;12.97;100.00;99815.48;1439025;91;21450;-86
2023/05/15 02:29:21;;;;;;;5.87;3.77;;;;;;;12.95;100.00;99804.23;1421960;90;21504;-86
2023/05/15 02:32:19;;;;;;;6.00;3.93;;;;;;;12.99;100.00;99788.25;1444057;89;21554;-84
2023/05/15 02:34:53;;;;;;;6.03;3.47;;;;;;;13.04;100.00;99800.50;1433261;90;21465;-85
2023/05/15 02:37:25;;;;;;;8.30;4.40;;;;;;;13.02;100.00;99803.83;1459326;89;21480;-86
2023/05/15 02:39:53;;;;;;;7.43;4.30;;;;;;;13.03;100.00;99792.69;1432411;91;21560;-86
2023/05/15 02:42:21;;;;;;;5.07;3.37;;;;;;;13.05;100.00;99802.64;1456885;88;22343;-86
2023/05/15 02:44:48;;;;;;;8.07;3.97;;;;;;;13.05;100.00;99794.17;1472538;88;21479;-85
2023/05/15 02:47:16;;;;;;;9.70;3.90;;;;;;;13.02;100.00;99786.56;1471709;87;21413;-85
2023/05/15 02:49:43;;;;;;;9.27;3.27;;;;;;;12.98;100.00;99783.12;1440007;89;22560;-85
2023/05/15 02:52:09;;;;;;;6.70;3.80;;;;;;;12.94;100.00;99778.66;1471050;88;21433;-85
2023/05/15 02:54:35;;;;;;;6.23;4.03;;;;;;;12.92;100.00;99770.53;1449130;88;22287;-86
2023/05/15 02:57:02;;;;;;;6.37;4.93;;;;;;;12.91;100.00;99768.39;1469541;89;21692;-85
2023/05/15 02:59:28;;;;;;;9.40;5.00;;;;;;;12.92;100.00;99773.19;1437008;89;21428;-85
2023/05/15 03:01:54;;;;;;;9.43;4.47;;;;;;;12.89;100.00;99769.09;1466127;88;21457;-85
2023/05/15 03:04:20;;;;;;;8.40;4.23;;;;;;;12.86;100.00;99772.11;1431994;88;21362;-87
2023/05/15 03:06:46;;;;;;;7.13;4.00;;;;;;;12.84;100.00;99771.45;1436513;88;22257;-84
2023/05/15 03:09:12;;;;;;;6.77;4.33;;;;;;;12.85;100.00;99769.11;1451969;88;21507;-85
2023/05/15 03:11:38;;;;;;;9.07;5.00;;;;;;;12.86;100.00;99761.48;1471416;88;21411;-86
2023/05/15 03:14:05;;;;;;;11.97;4.37;;;;;;;12.85;100.00;99765.13;1461978;88;21538;-87
2023/05/15 03:16:31;;;;;;;8.20;4.40;;;;;;;12.87;100.00;99759.14;1460502;89;21433;-86
2023/05/15 03:18:57;;;;;;;7.03;5.17;;;;;;;12.92;100.00;99757.26;1463506;89;21472;-87
2023/05/15 03:21:23;;;;;;;6.83;3.70;;;;;;;12.95;100.00;99751.11;1453025;88;21353;-86
2023/05/15 03:23:50;;;;;;;5.83;4.00;;;;;;;12.99;100.00;99747.58;1429776;90;21567;-85
2023/05/15 03:26:16;;;;;;;8.97;4.80;;;;;;;12.99;100.00;99752.39;1443245;90;22098;-85
2023/05/15 03:28:42;;;;;;;8.40;4.27;;;;;;;12.96;100.00;99753.25;1429143;89;21392;-86
2023/05/15 03:31:08;;;;;;;7.57;4.70;;;;;;;12.98;100.00;99757.39;1476526;88;22329;-85
2023/05/15 03:33:34;;;;;;;7.67;4.60;;;;;;;12.99;100.00;99756.38;1467945;88;21597;-85
2023/05/15 03:36:00;;;;;;;8.17;3.97;;;;;;;13.01;100.00;99764.17;1461688;88;21450;-85
2023/05/15 03:38:26;;;;;;;8.10;3.63;;;;;;;13.02;100.00;99765.31;1454611;90;21421;-87
2023/05/15 03:40:52;;;;;;;4.73;3.53;;;;;;;13.03;100.00;99773.63;1449736;90;21627;-87
2023/05/15 03:43:19;;;;;;;5.13;4.20;;;;;;;13.01;100.00;99770.31;1450885;89;21382;-86
2023/05/15 03:45:45;;;;;;;16.13;6.27;;;;;;;12.91;100.00;99773.70;1463900;88;22262;-86
2023/05/15 03:48:11;;;;;;;10.13;5.27;;;;;;;12.86;100.00;99773.44;1479343;88;21455;-86
2023/05/15 03:50:38;;;;;;;7.87;4.67;;;;;;;12.84;100.00;99776.25;1470206;88;21418;-87
2023/05/15 03:53:04;;;;;;;13.57;4.63;;;;;;;12.85;100.00;99773.09;1466259;88;21418;-87
2023/05/15 03:55:32;;;;;;;9.50;5.10;;;;;;;12.80;100.00;99774.97;1461455;88;21466;-88
2023/05/15 03:57:58;;;;;;;10.03;5.30;;;;;;;12.79;100.00;99780.45;1470135;88;21413;-85
2023/05/15 04:00:24;;;;;;;8.77;5.63;;;;;;;12.78;100.00;99780.13;1468731;88;21485;-86
2023/05/15 04:02:50;;;;;;;7.07;4.97;;;;;;;12.80;100.00;99774.12;1469384;88;21642;-86
2023/05/15 04:05:18;;;;;;;9.87;5.07;;;;;;;12.83;100.00;99767.13;1463817;88;21337;-86
2023/05/15 04:07:44;;;;;;;5.60;4.67;;;;;;;12.84;100.00;99764.81;1476887;87;22411;-86
2023/05/15 04:10:10;;;;;;;7.63;4.40;;;;;;;12.86;100.00;99764.14;1476495;87;21390;-86
2023/05/15 04:12:37;;;;;;;9.87;4.47;;;;;;;12.89;100.00;99762.45;1471849;88;21339;-87
2023/05/15 04:15:20;;;;;;;6.17;4.63;;;;;;;12.87;100.00;99758.63;1449356;88;22563;-85
2023/05/15 04:17:48;;;;;;;5.63;4.23;;;;;;;12.88;100.00;99762.11;1479809;88;22136;-86
2023/05/15 04:20:17;;;;;;;7.73;3.93;;;;;;;12.88;100.00;99760.78;1470891;88;21582;-86
2023/05/15 04:22:45;;;;;;;5.97;4.33;;;;;;;12.91;100.00;99767.06;1472546;88;21546;-83
2023/05/15 04:25:13;;;;;;;6.10;3.80;;;;;;;12.92;100.00;99760.77;1472045;87;21391;-86
2023/05/15 04:27:41;;;;;;;4.93;4.03;;;;;;;12.94;100.00;99759.24;1472884;88;21374;-85
2023/05/15 04:30:09;;;;;;;7.00;4.50;;;;;;;12.92;100.00;99762.09;1478363;87;21605;-86
2023/05/15 04:32:36;;;;;;;5.43;3.73;;;;;;;12.89;100.00;99762.45;1405692;91;21589;-86
2023/05/15 04:35:04;;;;;;;6.03;3.90;;;;;;;12.87;100.00;99769.77;1418643;90;21510;-86
2023/05/15 04:37:31;;;;;;;8.73;4.13;;;;;;;12.85;100.00;99765.94;1433218;90;21623;-86
2023/05/15 04:39:57;;;;;;;6.23;3.97;;;;;;;12.84;100.00;99767.47;1443019;90;21407;-86
2023/05/15 04:42:23;;;;;;;6.97;3.73;;;;;;;12.85;100.00;99771.77;1443206;90;22329;-85
2023/05/15 04:44:49;;;;;;;5.80;4.27;;;;;;;12.88;100.00;99778.05;1439266;90;21533;-86
2023/05/15 04:47:16;;;;;;;5.67;4.03;;;;;;;12.88;100.00;99775.39;1443148;90;21408;-85
2023/05/15 04:49:42;;;;;;;8.53;4.50;;;;;;;12.88;100.00;99766.09;1446728;90;22486;-86
2023/05/15 04:52:08;;;;;;;6.27;4.03;;;;;;;12.90;100.00;99769.41;1436955;90;21458;-86
2023/05/15 04:54:34;;;;;;;8.80;3.93;;;;;;;12.87;100.00;99765.78;1442936;90;21603;-86
2023/05/15 04:57:00;;;;;;;6.07;3.50;;;;;;;12.81;100.00;99765.98;1444903;90;22384;-86
2023/05/15 04:59:29;;;;;;;5.73;4.13;;;;;;;12.84;100.00;99758.17;1425393;90;21392;-86
2023/05/15 05:01:55;;;;;;;5.57;4.23;;;;;;;12.84;100.00;99767.47;1444110;90;21492;-86
2023/05/15 05:04:22;;;;;;;8.27;4.00;;;;;;;12.87;100.00;99772.42;1442392;90;21532;-85
2023/05/15 05:06:48;;;;;;;4.37;3.70;;;;;;;12.91;100.00;99774.20;1435160;90;21444;-85
2023/05/15 05:09:15;;;;;;;9.20;3.50;;;;;;;12.93;100.00;99768.23;1443585;90;21561;-86
2023/05/15 05:11:42;;;;;;;7.30;3.30;;;;;;;12.95;100.00;99772.36;1433322;90;21436;-85
2023/05/15 05:14:11;;;;;;;10.03;5.00;;;;;;;12.96;100.00;99771.84;1442268;90;21481;-85
2023/05/15 05:16:38;;;;;;;6.67;4.10;;;;;;;12.92;100.00;99772.72;1448453;90;21444;-87
2023/05/15 05:19:05;;;;;;;9.33;4.60;;;;;;;12.93;100.00;99782.83;1434201;90;22391;-86
2023/05/15 05:21:31;;;;;;;7.07;4.10;;;;;;;12.92;100.00;99786.00;1444707;90;21540;-86
2023/05/15 05:23:58;;;;;;;9.27;4.20;;;;;;;12.93;100.00;99784.98;1437490;90;21430;-87
2023/05/15 05:26:25;;;;;;;10.40;4.93;;;;;;;12.93;100.00;99792.95;1445128;90;22487;-87
2023/05/15 05:28:52;;;;;;;5.03;3.90;;;;;;;12.97;100.00;99794.73;1437189;90;21466;-87
2023/05/15 05:31:20;;;;;;;7.60;4.33;;;;;;;12.99;100.00;99798.88;1421235;90;21532;-82
2023/05/15 05:33:48;;;;;;;5.60;3.83;;;;;;;13.03;100.00;99799.33;1438346;90;21538;-84
2023/05/15 05:36:15;;;;;;;10.00;4.87;;;;;;;13.06;100.00;99798.50;1439911;90;21458;-84
2023/05/15 05:38:42;;;;;;;7.63;4.57;;;;;;;13.08;100.00;99796.47;1441335;90;22397;-85
2023/05/15 05:41:08;;;;;;;7.87;3.97;;;;;;;13.13;100.00;99795.94;1441023;90;21407;-84
2023/05/15 05:43:34;;;;;;;5.83;4.00;;;;;;;13.16;100.00;99791.59;1440016;90;21620;-84
2023/05/15 05:46:01;;;;;;;7.63;4.47;;;;;;;13.20;100.00;99790.22;1438898;90;22323;-84
2023/05/15 05:48:28;;;;;;;7.03;4.70;;;;;;;13.23;100.00;99790.36;1438590;90;21955;-86
2023/05/15 05:50:55;;;;;;;9.77;4.20;;;;;;;13.27;100.00;99774.43;1437664;90;22371;-86
2023/05/15 05:53:21;;;;;;;7.37;5.47;;;;;;;13.30;100.00;99774.06;1439247;90;21502;-87
2023/05/15 05:55:48;;;;;;;5.67;4.37;;;;;;;13.32;100.00;99761.40;1438782;90;21599;-86
2023/05/15 05:58:16;;;;;;;5.50;4.67;;;;;;;13.36;100.00;99761.38;1437567;90;21429;-86
2023/05/15 06:00:42;;;;;;;9.43;4.47;;;;;;;13.40;100.00;99758.66;1477751;90;22450;-88
2023/05/15 06:03:08;;;;;;;5.50;4.37;;;;;;;13.45;100.00;99754.96;1367462;90;21437;-87
2023/05/15 06:05:35;;;;;;;6.13;4.00;;;;;;;13.53;100.00;99752.73;1407117;90;21556;-86
2023/05/15 06:08:02;;;;;;;9.50;4.50;;;;;;;13.58;100.00;99753.02;1520815;90;21567;-87
2023/05/15 06:10:29;;;;;;;10.47;4.80;;;;;;;13.62;100.00;99741.50;1388528;90;21473;-84
2023/05/15 06:12:56;;;;;;;8.63;4.40;;;;;;;13.65;100.00;99745.12;1436213;90;22229;-87
2023/05/15 06:15:22;;;;;;;7.30;3.83;;;;;;;13.68;100.00;99744.23;1440835;90;21421;-86
2023/05/15 06:17:48;;;;;;;5.17;4.40;;;;;;;13.76;100.00;99744.66;1440538;90;21450;-85
2023/05/15 06:20:15;;;;;;;5.70;4.03;;;;;;;13.79;100.00;99739.47;1442237;90;21443;-87
2023/05/15 06:22:41;;;;;;;5.50;3.50;;;;;;;13.82;100.00;99741.77;1439382;90;21385;-89
2023/05/15 06:25:12;;;;;;;8.87;4.43;;;;;;;13.80;100.00;99743.77;1440976;90;21614;-88
2023/05/15 06:27:36;;;;;;;8.87;3.40;;;;;;;13.81;100.00;99753.39;1441485;90;21495;-88
2023/05/15 06:30:03;;;;;;;4.97;3.73;;;;;;;13.80;100.00;99749.91;1439181;90;21583;-87
2023/05/15 06:32:32;;;;;;;6.37;3.73;;;;;;;13.84;100.00;99748.55;1366758;90;21399;-86
2023/05/15 06:34:58;;;;;;;7.10;4.40;;;;;;;13.89;100.00;99748.80;1366385;90;21567;-86
2023/05/15 06:41:25;;;;;;;11.83;5.13;;;;;;;14.08;100.00;99734.09;1443500;90;21703;-86
2023/05/15 06:43:51;;;;;;;6.97;4.43;;;;;;;14.20;99.85;99733.92;1425991;90;22435;-87
2023/05/15 06:46:17;;;;;;;6.03;4.00;;;;;;;14.28;99.50;99735.64;1441309;90;22482;-89
2023/05/15 06:48:44;;;;;;;6.37;3.47;;;;;;;14.37;98.67;99738.50;1441404;90;21451;-85
2023/05/15 06:51:10;;;;;;;11.60;5.13;;;;;;;14.47;98.31;99732.03;1440164;90;21541;-88
2023/05/15 06:53:37;;;;;;;8.57;3.37;;;;;;;14.58;98.02;99724.91;1438275;90;21458;-87
2023/05/15 06:56:03;;;;;;;7.30;4.30;;;;;;;14.67;97.76;99717.09;1439754;90;21496;-85
2023/05/15 07:02:29;;;;;;;9.30;4.50;;;;;;;14.81;96.44;99711.38;1438516;90;21510;-87
2023/05/15 07:04:56;;;;;;;12.33;5.00;;;;;;;14.76;94.03;99723.96;1441173;90;21773;-87
2023/05/15 07:07:22;;;;;;;11.83;3.70;;;;;;;14.68;93.70;99738.74;1440642;90;22360;-90
2023/05/15 07:09:49;;;;;;;8.53;4.97;;;;;;;14.58;93.60;99727.06;1440647;90;21635;-89
2023/05/15 07:12:15;;;;;;;10.87;4.17;;;;;;;14.55;93.88;99723.45;1437661;90;21481;-84
2023/05/15 07:14:41;;;;;;;8.43;4.07;;;;;;;14.52;94.86;99725.16;1436496;90;21466;-83
2023/05/15 07:17:07;;;;;;;6.87;4.23;;;;;;;14.50;94.69;99720.52;1436168;90;21558;-85
2023/05/15 07:19:46;;;;;;;12.23;4.67;;;;;;;14.48;94.91;99724.39;1436656;90;21466;-89
2023/05/15 07:22:12;;;;;;;7.83;4.63;;;;;;;14.42;94.87;99722.80;1434937;90;21598;-90
2023/05/15 07:24:38;;;;;;;7.10;4.10;;;;;;;14.38;94.40;99717.52;1442544;90;21400;-90
2023/05/15 07:27:05;;;;;;;10.13;4.10;;;;;;;14.37;95.01;99711.87;1443179;90;22357;-89
2023/05/15 07:29:32;;;;;;;11.33;3.80;;;;;;;14.38;95.01;99710.86;1438154;90;21481;-88
2023/05/15 07:31:58;;;;;;;9.07;3.90;;;;;;;14.38;94.96;99710.86;1441839;90;21429;-90
2023/05/15 07:34:24;;;;;;;4.80;3.47;;;;;;;14.37;94.76;99717.20;1517638;90;21422;-91
2023/05/15 07:36:55;;;;;;;8.07;4.87;;;;;;;14.43;94.89;99708.97;1425526;90;21414;-88
2023/05/15 07:39:21;;;;;;;12.03;5.13;;;;;;;14.50;94.72;99697.04;1378121;90;21490;-87
2023/05/15 07:41:47;;;;;;;5.93;3.60;;;;;;;14.55;94.65;99701.33;1441810;90;21369;-89
2023/05/15 07:44:13;;;;;;;8.87;4.50;;;;;;;14.61;94.46;99709.88;1436045;90;21502;-88
2023/05/15 07:46:40;;;;;;;7.73;4.83;;;;;;;14.64;94.07;99712.16;1390951;90;21429;-77
2023/05/15 07:49:06;;;;;;;5.83;3.53;;;;;;;14.62;94.25;99712.36;1443701;90;22353;-77
2023/05/15 07:51:32;;;;;;;11.03;3.73;;;;;;;14.68;94.42;99714.77;1438223;90;21503;-77
2023/05/15 07:53:58;;;;;;;7.23;4.20;;;;;;;14.76;93.67;99721.30;1439677;90;21399;-77
2023/05/15 07:56:24;;;;;;;9.27;3.33;;;;;;;14.78;92.98;99722.42;1432352;90;21562;-77
2023/05/15 07:58:51;;;;;;;12.33;4.53;;;;;;;14.78;92.88;99723.76;1435576;90;21633;-77
2023/05/15 08:01:17;;;;;;;9.57;4.00;;;;;;;14.78;92.10;99720.58;1441687;90;21451;-77
2023/05/15 08:03:43;;;;;;;4.67;3.50;;;;;;;14.75;91.89;99727.63;1438179;90;22486;-77
2023/05/15 08:06:09;;;;;;;8.33;4.37;;;;;;;14.72;91.82;99733.34;1438994;90;21436;-77
2023/05/15 08:08:35;;;;;;;4.37;3.60;;;;;;;14.67;92.25;99753.05;1439950;90;21643;-89
2023/05/15 08:11:02;;;;;;;7.67;3.47;;;;;;;14.63;92.20;99759.78;1440695;90;21547;-89
2023/05/15 08:13:28;;;;;;;5.63;3.80;;;;;;;14.58;92.05;99752.87;1439825;90;21384;-89
2023/05/15 08:15:54;;;;;;;7.27;3.80;;;;;;;14.55;92.27;99764.72;1439714;90;21458;-89
2023/05/15 08:18:21;;;;;;;16.80;4.80;;;;;;;14.54;92.25;99764.92;1437699;90;21518;-87
2023/05/15 08:23:31;;;;;;;7.40;4.90;;;;;;;14.59;92.77;99769.18;1504748;85;28534;-88
2023/05/15 08:25:58;;;;;;;15.10;5.93;;;;;;;14.54;92.63;99772.41;1481395;86;21470;-84
2023/05/15 08:28:24;;;;;;;6.97;4.87;;;;;;;14.55;92.89;99777.22;1461768;89;21592;-85
2023/05/15 08:30:50;;;;;;;9.87;5.07;;;;;;;14.53;92.88;99765.44;1447471;89;21648;-87
2023/05/15 08:33:17;;;;;;;6.90;4.23;;;;;;;14.51;93.18;99758.11;1450338;88;21441;-88
2023/05/15 08:35:43;;;;;;;9.10;4.23;;;;;;;14.52;93.60;99759.77;1446765;89;21472;-85
2023/05/15 08:38:09;;;;;;;5.73;3.43;;;;;;;14.56;93.48;99745.08;1447894;89;22323;-89
2023/05/15 08:40:36;;;;;;;14.50;5.03;;;;;;;14.65;93.82;99743.13;1448829;90;21598;-89
2023/05/15 08:43:14;;;;;;;9.63;4.73;;;;;;;14.76;93.73;99743.09;1445586;89;21458;-89
2023/05/15 08:45:41;;;;;;;9.53;4.40;;;;;;;14.85;93.56;99745.45;1444385;89;21457;-90
2023/05/15 08:48:12;;;;;;;5.60;4.03;;;;;;;14.94;93.16;99751.98;1445980;89;21591;-88
2023/05/15 08:50:39;;;;;;;9.43;4.05;;;;;;;14.98;92.89;99747.39;1454767;89;21596;-90
2023/05/15 08:53:06;;;;;;;6.67;4.67;;;;;;;14.99;92.01;99747.72;1464584;89;22360;-87
2023/05/15 08:55:33;;;;;;;7.73;3.77;;;;;;;15.03;91.98;99753.48;1452461;89;21540;-89
2023/05/15 08:58:00;;;;;;;7.00;4.47;;;;;;;15.07;91.98;99762.73;1452114;89;21472;-89
2023/05/15 09:00:26;;;;;;;9.93;3.93;;;;;;;15.09;92.19;99751.38;1449162;89;21433;-90
2023/05/15 09:02:53;;;;;;;7.27;3.10;;;;;;;15.10;92.48;99759.67;1433186;89;21537;-90
2023/05/15 09:05:20;;;;;;;5.63;3.83;;;;;;;15.15;91.67;99759.92;1448769;89;22264;-90
2023/05/15 09:07:48;;;;;;;7.10;4.13;;;;;;;15.23;91.41;99750.97;1449345;89;21397;-90
2023/05/15 09:10:15;;;;;;;5.30;4.20;;;;;;;15.30;91.39;99757.97;1442670;89;21547;-89
2023/05/15 09:12:43;;;;;;;7.43;3.73;;;;;;;15.34;91.47;99762.43;1437354;89;21973;-88
2023/05/15 09:15:16;;;;;;;15.67;3.97;;;;;;;15.37;91.16;99760.70;1389614;89;21413;-88
2023/05/15 09:17:44;;;;;;;8.70;3.80;;;;;;;15.40;90.01;99768.31;1442209;89;21524;-89
2023/05/15 09:20:36;;;;;;;9.90;4.30;;;;;;;15.45;90.39;99762.38;1443913;89;22357;-88
2023/05/15 09:23:05;;;;;;;7.67;3.47;;;;;;;15.53;90.57;99757.71;1447069;89;22083;-87
2023/05/15 09:25:40;;;;;;;7.87;4.53;;;;;;;15.67;90.35;99761.28;1434371;89;21472;-89
2023/05/15 09:28:10;;;;;;;7.97;3.47;;;;;;;15.76;89.73;99765.47;1478419;87;22588;-88
2023/05/15 09:30:41;;;;;;;10.25;4.67;;;;;;;15.82;89.42;99760.37;1443549;87;21398;-86
2023/05/15 09:33:08;;;;;;;8.73;4.47;;;;;;;15.86;88.65;99768.30;1462736;88;21419;-88
2023/05/15 09:35:37;;;;;;;5.93;3.47;;;;;;;15.87;88.18;99774.77;1430788;90;21465;-89
2023/05/15 09:38:11;;;;;;;7.90;3.63;;;;;;;15.87;87.51;99769.42;1518522;87;21407;-90
2023/05/15 09:40:39;;;;;;;13.23;4.40;;;;;;;15.90;87.25;99769.03;1431221;90;21457;-89
2023/05/15 09:43:05;;;;;;;7.73;3.87;;;;;;;15.95;87.16;99766.59;1426688;87;21622;-88
2023/05/15 09:45:32;;;;;;;13.07;4.57;;;;;;;16.06;87.47;99769.21;1475889;87;21339;-85
2023/05/15 09:48:04;;;;;;;6.67;4.27;;;;;;;16.14;86.95;99766.38;1480128;86;21435;-86
2023/05/15 09:50:37;;;;;;;13.97;4.20;;;;;;;16.24;86.47;99778.82;1484786;87;21346;-89
2023/05/15 09:53:04;;;;;;;10.03;4.07;;;;;;;16.33;85.89;99781.31;1481665;87;21521;-90
2023/05/15 09:55:33;;;;;;;9.07;4.73;;;;;;;16.41;85.66;99782.47;1435550;91;21458;-91
2023/05/15 09:58:11;;;;;;;6.80;3.53;;;;;;;16.47;85.17;99778.48;1474445;87;21434;-90
2023/05/15 10:00:39;;;;;;;12.60;4.70;;;;;;;16.52;84.56;99775.73;1474041;87;22817;-86
2023/05/15 10:03:08;;;;;;;7.07;4.07;;;;;;;16.56;84.76;99775.62;1463846;87;21522;-88
2023/05/15 10:05:34;;;;;;;6.00;4.13;;;;;;;16.58;84.37;99774.40;1429101;90;21471;-87
2023/05/15 10:08:01;;;;;;;13.67;4.27;;;;;;;16.62;83.70;99778.30;1431306;90;22499;-89
2023/05/15 10:10:28;;;;;;;7.93;4.10;;;;;;;16.65;84.17;99779.23;1477393;87;21404;-88
2023/05/15 10:12:58;;;;;;;11.57;4.40;;;;;;;16.63;84.01;99779.97;1431179;90;21701;-89
2023/05/15 10:15:25;;;;;;;10.70;5.33;;;;;;;16.61;83.66;99780.67;1365778;91;22091;-88
2023/05/15 10:17:52;;;;;;;10.43;4.27;;;;;;;16.58;83.00;99787.75;1478520;87;21435;-89
2023/05/15 10:20:22;;;;;;;8.77;4.63;;;;;;;16.54;83.49;99783.83;1475740;87;22400;-88
2023/05/15 10:22:53;;;;;;;6.50;4.08;;;;;;;16.47;82.69;99789.67;1448142;89;21568;-87
2023/05/15 10:25:40;;;;;;;10.70;4.50;;;;;;;16.46;83.50;99795.54;1485818;86;21486;-89
2023/05/15 10:28:11;;;;;;;9.90;4.40;;;;;;;16.45;83.70;99789.86;1481437;86;21517;-87
2023/05/15 10:30:38;;;;;;;11.23;5.10;;;;;;;16.42;84.16;99797.46;1427822;86;22642;-90
2023/05/15 10:33:07;;;;;;;11.87;5.50;;;;;;;16.43;84.10;99793.79;1453790;89;21464;-87
2023/05/15 10:35:35;;;;;;;9.37;4.37;;;;;;;16.43;84.05;99789.78;1481381;86;21449;-90
2023/05/15 10:38:04;;;;;;;11.67;4.83;;;;;;;16.44;83.67;99791.42;1481959;86;21457;-88
2023/05/15 10:40:32;;;;;;;12.57;4.67;;;;;;;16.42;84.00;99802.80;1485320;86;22178;-90
2023/05/15 10:43:00;;;;;;;6.43;3.77;;;;;;;16.40;84.09;99806.18;1485716;86;21435;-87
2023/05/15 10:45:28;;;;;;;10.20;3.87;;;;;;;16.36;84.01;99805.77;1478603;86;22447;-86
2023/05/15 10:47:56;;;;;;;10.10;4.80;;;;;;;16.34;83.78;99805.16;1481828;86;21530;-88
2023/05/15 10:50:22;;;;;;;15.97;4.90;;;;;;;16.31;83.76;99801.53;1489688;86;21397;-86
2023/05/15 10:52:54;;;;;;;12.97;4.40;;;;;;;16.26;83.69;99806.67;1483559;86;21582;-87
2023/05/15 10:55:22;;;;;;;11.50;4.33;;;;;;;16.21;83.94;99805.92;1483136;86;22381;-87
2023/05/15 10:57:49;;;;;;;11.67;4.23;;;;;;;16.19;84.03;99803.95;1468711;87;21563;-85
2023/05/15 11:00:25;;;;;;;9.53;4.60;;;;;;;16.16;84.56;99815.55;1475876;86;21507;-84
2023/05/15 11:02:55;;;;;;;12.90;4.70;;;;;;;16.11;85.06;99810.83;1478913;87;22489;-89
2023/05/15 11:05:21;;;;;;;10.07;5.90;;;;;;;16.05;85.77;99816.92;1508465;86;21610;-88
2023/05/15 11:08:22;;;;;;;9.50;5.03;;;;;;;16.04;86.90;99821.14;1488802;86;21602;-88
2023/05/15 11:10:48;;;;;;;14.03;5.70;;;;;;;16.02;86.90;99828.00;1478357;86;21516;-88
2023/05/15 11:13:14;;;;;;;14.10;5.13;;;;;;;15.91;88.89;99827.22;1457196;88;21420;-87
2023/05/15 11:15:46;;;;;;;13.97;5.80;;;;;;;15.82;90.90;99822.55;1461477;86;21536;-86
2023/05/15 11:18:13;;;;;;;12.43;5.50;;;;;;;15.79;90.57;99827.80;1482111;86;21411;-90
2023/05/15 11:20:52;;;;;;;11.83;5.43;;;;;;;15.81;91.30;99825.44;1454141;88;22455;-88
2023/05/15 11:23:22;;;;;;;14.60;5.63;;;;;;;15.78;93.62;99830.12;1489573;86;21542;-88
2023/05/15 11:25:54;;;;;;;14.83;5.47;;;;;;;15.75;94.53;99830.52;1451410;88;21507;-86
2023/05/15 11:28:23;;;;;;;9.83;5.20;;;;;;;15.67;94.90;99831.98;1478003;87;22579;-87
2023/05/15 11:30:55;;;;;;;10.50;6.07;;;;;;;15.54;96.93;99833.23;1426693;90;22297;-88
2023/05/15 11:33:21;;;;;;;14.97;5.60;;;;;;;15.48;97.55;99826.02;1554843;87;21601;-88
2023/05/15 11:35:52;;;;;;;10.67;5.27;;;;;;;15.40;99.06;99829.64;1357744;91;21347;-90
2023/05/15 11:38:24;;;;;;;14.23;6.85;;;;;;;15.38;100.00;99833.52;1566109;87;21360;-87
2023/05/15 11:40:57;;;;;;;11.00;5.40;;;;;;;15.35;100.00;99828.88;1566541;87;21354;-88
2023/05/15 11:43:26;;;;;;;13.53;7.80;;;;;;;15.38;100.00;99829.52;1361158;91;21346;-91
2023/05/15 11:46:08;;;;;;;8.58;5.00;;;;;;;15.45;100.00;99834.37;1354205;90;21347;-89
2023/05/15 11:48:39;;;;;;;10.57;5.40;;;;;;;15.47;100.00;99831.02;1564046;87;21252;-91
2023/05/15 11:51:26;;;;;;;13.10;5.58;;;;;;;15.46;100.00;99829.38;1477245;87;21434;-85